Tiempo atmosférico en la estación meteorológica de Campos, Salines Llevant, Illes Balears (3 m.)



Fecha
DESCASC
Temp. máxima en grados centígrados (hora)
DESCASC
Temp. mínima en grados centígrados (hora)
DESCASC
Temp. media en grados centígrados
DESCASC
Racha de viento máxima en m/sg (hora)
DESCASC
Velocidad máxima media en intervalos de 10 minutos(hora)
DESCASC
Precipitaciones diarias en mm
DESCASC
Precipitaciones de 00:00 a 06:00 en mm
DESCASC
Precipitaciones de 06:00 a 12:00 en mm
DESCASC
Precipitaciones de 12:00 a 18:00 en mm
DESCASC
Precipitaciones de 18:00 a 24:00 en mm
DESCASC
14-10-2018 25 (14:10) 15 (06:10) 20 13.61 (14:20) 10 (14:40) 0.2 0 0 0 0.2
13-10-2018 26 (14:30) 15.2 (07:30) 20.6 7.5 (17:20) 5.28 (18:00) 0 0 0 0 0
12-10-2018 25.6 (16:10) 13.8 (07:00) 19.7 5.56 (14:40) 3.61 (13:20) 0 0 0 0 0
11-10-2018 25.9 (15:00) 13.6 (07:20) 19.8 6.67 (15:40) 3.89 (16:10) 0 0 0 0 0
10-10-2018 25.3 (13:20) 15 (08:00) 20.1 11.39 (12:50) 6.94 (12:50) 0 0 0 0 0
08-10-2018 23.6 (15:10) 12.5 (23:59) 18.1 12.78 (17:20) 8.89 (17:30) 9.8 0 0 7.8 2
07-10-2018 25.1 (13:30) 17.3 (23:40) 21.2 11.39 (10:50) 7.78 (10:50) 0 0 0 0 0
06-10-2018 25.6 (14:40) 12.6 (07:50) 19.1 8.33 (15:30) 5.56 (16:00) 0 0 0 0 0
05-10-2018 25.7 (14:10) 14.2 (08:00) 20 11.11 (13:20) 6.39 (13:20) 0 0 0 0 0
04-10-2018 25.4 (13:50) 12.3 (00:00) 18.8 13.61 (11:00) 9.72 (11:00) 0 0 0 0 0
03-10-2018 23.2 (16:00) 11.4 (00:00) 17.3 15.83 (11:40) 10 (11:10) 0 0 0 0 0
02-10-2018 22.6 (14:30) 12.4 (00:00) 17.5 11.11 (15:10) 7.5 (15:30) 1.2 0 0 1.2 0
01-10-2018 26 (13:10) 14.8 (00:00) 20.4 10 (13:20) 6.39 (13:40) 2.6 0 0 2.6 0
30-09-2018 28.7 (13:30) 14.4 (00:00) 21.6 7.78 (15:00) 4.72 (14:10) 0 0 0 0 0
29-09-2018 28.7 (14:50) 13.1 (00:00) 20.9 8.61 (16:30) 4.72 (13:10) 0 0 0 0 0
28-09-2018 25.7 (13:50) 13.1 (00:00) 19.4 6.39 (16:40) 3.61 (16:30) 0 0 0 0 0
27-09-2018 26.5 (14:20) 16.9 (00:00) 21.7 10.83 (11:40) 5.83 (15:40) 0 0 0 0 0
26-09-2018 26.5 (15:40) 18.4 (00:00) 22.4 13.61 (14:30) 8.89 (14:30) 0.4 0 0.4 0 0
25-09-2018 27.2 (16:10) 20.7 (00:00) 24 12.5 (14:40) 7.5 (18:20) 0 0 0 0 0
24-09-2018 29.9 (13:50) 16.1 (00:00) 23 7.78 (15:20) 5 (14:40) 0 0 0 0 0
23-09-2018 28.8 (16:30) 17.5 (07:40) 23.1 6.94 (12:40) 5 (13:10) 0 0 0 0 0
22-09-2018 29.3 (13:00) 18.2 (07:40) 23.8 7.78 (14:10) 5 (14:10) 0 0 0 0 0
21-09-2018 27.8 (13:40) 17 (07:20) 22.4 7.78 (15:00) 5.56 (16:40) 0 0 0 0 0
20-09-2018 28.7 (13:20) 17.1 (06:10) 22.9 7.22 (13:30) 4.44 (13:50) 0 0 0 0 0
19-09-2018 27.9 (18:10) 20.3 (23:59) 24.1 8.61 (13:40) 5.28 (13:40) 0 0 0 0 0
18-09-2018 29 (14:40) 21.9 (03:10) 25.4 7.22 (17:00) 4.72 (17:10) 0.2 0.2 0 0 0
17-09-2018 30.2 (13:50) 21.7 (07:30) 26 7.5 (13:00) 5.28 (13:10) 2.6 0 0 2.6 0
16-09-2018 28.6 (12:50) 21.5 (00:00) 25.1 8.89 (13:00) 5.83 (14:10) 0 0 0 0 0
15-09-2018 26.7 (13:40) 20.6 (00:00) 23.7 9.72 (11:40) 6.67 (13:20) 11.6 0 11.4 0.2 0

Gráficas

Temp. máximas Temp. mínimas Temp. medias Precipitaciones Rachas de viento máximas Velocidades máximas media en intervalos de 10 minutos

Datos horarios

Fecha y hora oficial Temperatura (ºC) Velocidad del viento (km/h) Dirección del viento Racha (km/h) Dirección de racha Precipitación (mm) Presión (hPa) Tendencia (hPa) Humedad (%)
2018-10-14 23:00:00 22.3 26 Sudeste 44 Sudeste 0 -- -- 90
2018-10-14 22:00:00 22 27 Sudeste 41 Sudeste 0.2 -- -- 91
2018-10-14 21:00:00 22.1 20 Sudeste 32 Sudeste 0 -- -- 88
2018-10-14 20:00:00 22.6 16 Sudeste 36 Sudeste 0 -- -- 84
2018-10-14 19:00:00 22.9 19 Sudeste 38 Sudeste 0 -- -- 81
2018-10-14 18:00:00 23.2 26 Sudeste 41 Sudeste 0 -- -- 79
2018-10-14 17:00:00 24.2 29 Sudeste 44 Sudeste 0 -- -- 74
2018-10-14 16:00:00 24.2 29 Sudeste 48 Sudeste 0 -- -- 75
2018-10-14 15:00:00 24.3 31 Sudeste 49 Sudeste 0 -- -- 75
2018-10-14 14:00:00 24.7 31 Sudeste 44 Sudeste 0 -- -- 73
2018-10-14 13:00:00 24.9 28 Sudeste 46 Sudeste 0 -- -- 74
2018-10-14 12:00:00 24 30 Sudeste 43 Sudeste 0 -- -- 78
2018-10-14 11:00:00 23.9 27 Sudeste 39 Sudeste 0 -- -- 78
2018-10-14 10:00:00 22.9 18 Sudeste 31 Sudeste 0 -- -- 81
2018-10-14 09:00:00 19.2 12 Sudeste 22 Sudeste 0 -- -- 100
2018-10-14 08:00:00 16.8 0 Calma -- -- 0 -- -- 97
2018-10-14 07:00:00 15.3 0 Calma -- -- 0 -- -- 97
2018-10-14 06:00:00 15.1 0 Calma -- -- 0 -- -- 97
2018-10-14 05:00:00 15.4 0 Calma -- -- 0 -- -- 97
2018-10-14 04:00:00 15.4 0 Calma -- -- 0 -- -- 96
2018-10-14 03:00:00 15.8 0 Calma -- -- 0 -- -- 95
2018-10-14 02:00:00 16.4 0 Calma 0 Calma 0 -- -- 95
2018-10-14 01:00:00 16.8 0 Calma 4 Norte 0 -- -- 94
2018-10-14 00:00:00 17.8 0 Calma -- -- 0 -- -- 94
2018-10-13 23:00:00 18.3 0 Calma -- -- 0 -- -- 92
2018-10-13 22:00:00 19.3 0 Calma 2 Nordeste 0 -- -- 90
2018-10-13 21:00:00 21 2 Este 9 Este 0 -- -- 89
2018-10-13 20:00:00 21.8 7 Este 17 Sudeste 0 -- -- 86
2018-10-13 19:00:00 22.5 13 Sudeste 26 Este 0 -- -- 83
2018-10-13 18:00:00 23.6 19 Sudeste 27 Sudeste 0 -- -- 77
2018-10-13 17:00:00 24.7 17 Sudeste 25 Sudeste 0 -- -- 74
2018-10-13 16:00:00 25.6 14 Sudeste 23 Sudeste 0 -- -- 71
2018-10-13 15:00:00 25.8 12 Este 21 Este 0 -- -- 69
2018-10-13 14:00:00 25.8 8 Sudeste 20 Este 0 -- -- 68
2018-10-13 13:00:00 25.2 11 Sudeste 18 Sudeste 0 -- -- 72
2018-10-13 12:00:00 24.4 10 Sudeste 15 Sudeste 0 -- -- 77
2018-10-13 11:00:00 23.3 5 Sudeste 14 Sudeste 0 -- -- 91
2018-10-13 10:00:00 19.7 2 Noroeste 5 Noroeste 0 -- -- 98
2018-10-13 09:00:00 16.8 0 Calma 3 Noroeste 0 -- -- 99
2018-10-13 08:00:00 15.7 0 Calma 5 Noroeste 0 -- -- 98
2018-10-13 07:00:00 15.4 0 Calma -- -- 0 -- -- 99
2018-10-13 06:00:00 15.9 0 Calma 0 Calma 0 -- -- 98
2018-10-13 05:00:00 16.2 0 Calma -- -- 0 -- -- 98
2018-10-13 04:00:00 16.3 0 Calma -- -- 0 -- -- 98
2018-10-13 03:00:00 16.2 0 Calma -- -- 0 -- -- 97
2018-10-13 02:00:00 16.5 0 Calma 4 Norte 0 -- -- 96
2018-10-13 01:00:00 17 0 Calma 4 Norte 0 -- -- 96
2018-10-13 00:00:00 17.8 0 Calma 4 Sudeste 0 -- -- 95
2018-10-12 23:00:00 18.7 4 Sudeste 5 Sudeste 0 -- -- 95
2018-10-12 22:00:00 19.2 4 Sudeste 5 Sudeste 0 -- -- 94
2018-10-12 21:00:00 19.5 4 Sudeste 5 Sur 0 -- -- 92
2018-10-12 20:00:00 21.3 4 Sur 10 Sudoeste 0 -- -- 88
2018-10-12 19:00:00 23.1 6 Sudoeste 13 Sudoeste 0 -- -- 84
2018-10-12 18:00:00 24.3 9 Sudoeste 16 Sudoeste 0 -- -- 77
2018-10-12 17:00:00 25.4 10 Oeste 15 Sudoeste 0 -- -- 65
2018-10-12 16:00:00 25.4 8 Oeste 15 Oeste 0 -- -- 68
2018-10-12 15:00:00 24.9 10 Oeste 20 Sudoeste 0 -- -- 77
2018-10-12 14:00:00 25 10 Oeste 17 Oeste 0 -- -- 75
2018-10-12 13:00:00 25 9 Sudoeste 15 Oeste 0 -- -- 76
2018-10-12 12:00:00 24 4 Oeste 8 Oeste 0 -- -- 80
2018-10-12 11:00:00 21.7 4 Oeste 6 Noroeste 0 -- -- 94
2018-10-12 10:00:00 18.5 4 Norte 6 Noroeste 0 -- -- 98
2018-10-12 09:00:00 16.1 0 Calma 4 Sudeste 0 -- -- 99
2018-10-12 08:00:00 14.2 0 Calma 0 Calma 0 -- -- 98
2018-10-12 07:00:00 13.8 0 Calma -- -- 0 -- -- 97
2018-10-12 06:00:00 14.3 0 Calma -- -- 0 -- -- 97
2018-10-12 05:00:00 14.8 0 Calma 2 Nordeste 0 -- -- 97
2018-10-12 04:00:00 15 0 Calma 3 Nordeste 0 -- -- 97
2018-10-12 03:00:00 15.6 0 Calma 8 Norte 0 -- -- 97
2018-10-12 02:00:00 16.5 3 Nordeste 8 Norte 0 -- -- 97
2018-10-12 01:00:00 17.4 4 Norte 6 Norte 0 -- -- 96
2018-10-12 00:00:00 17.7 0 Calma 5 Sudeste 0 -- -- 95
2018-10-11 23:00:00 18.5 3 Sudeste 6 Sudeste 0 -- -- 95
2018-10-11 22:00:00 19.4 0 Calma 8 Noroeste 0 -- -- 94
2018-10-11 21:00:00 19.4 0 Calma 5 Sur 0 -- -- 92
2018-10-11 20:00:00 21.1 5 Sudeste 6 Sudeste 0 -- -- 89
2018-10-11 19:00:00 23.2 6 Sur 16 Sur 0 -- -- 85
2018-10-11 18:00:00 24.8 10 Sudoeste 15 Sudoeste 0 -- -- 76
2018-10-11 17:00:00 25.2 12 Sur 20 Sudoeste 0 -- -- 76
2018-10-11 16:00:00 25.8 10 Sudoeste 24 Sur 0 -- -- 66
2018-10-11 15:00:00 25.9 11 Sur 18 Sudoeste 0 -- -- 67
2018-10-11 14:00:00 25.4 10 Oeste 18 Sudoeste 0 -- -- 73
2018-10-11 13:00:00 24.9 10 Oeste 15 Oeste 0 -- -- 75
2018-10-11 12:00:00 24.9 6 Sudoeste 16 Sudoeste 0 -- -- 74
2018-10-11 11:00:00 22.1 4 Noroeste 9 Norte 0 -- -- 87
2018-10-11 10:00:00 19 5 Norte 8 Noroeste 0 -- -- 99
2018-10-11 09:00:00 15.4 0 Calma -- -- 0 -- -- 99
2018-10-11 08:00:00 14.1 0 Calma 5 Norte 0 -- -- 97
2018-10-11 07:00:00 14 0 Calma 4 Noroeste 0 -- -- 97
2018-10-11 06:00:00 14.1 0 Calma 5 Noroeste 0 -- -- 97
2018-10-11 05:00:00 14 0 Calma 3 Noroeste 0 -- -- 97
2018-10-11 04:00:00 14.5 0 Calma 4 Norte 0 -- -- 96
2018-10-11 03:00:00 15.6 0 Calma 6 Norte 0 -- -- 96
2018-10-11 02:00:00 15.3 2 Sudeste 5 Sur 0 -- -- 96
2018-10-11 01:00:00 16 0 Calma 4 Norte 0 -- -- 94
2018-10-11 00:00:00 16.7 0 Calma 4 Sudeste 0 -- -- 94
2018-10-10 23:00:00 17.5 3 Sudeste 6 Norte 0 -- -- 92
2018-10-10 22:00:00 19.1 4 Noroeste 11 Nordeste 0 -- -- 90
2018-10-10 21:00:00 20.2 5 Nordeste 12 Nordeste 0 -- -- 89
2018-10-10 20:00:00 22.3 2 Noroeste 9 Oeste 0 -- -- 88
2018-10-10 19:00:00 23 7 Sudoeste 23 Sudoeste 0 -- -- 84
2018-10-10 18:00:00 23.9 13 Sur 23 Sur 0 -- -- 79
2018-10-10 17:00:00 23.9 12 Sudeste 26 Este 0 -- -- 82
2018-10-10 16:00:00 24 15 Este 28 Sudeste 0 -- -- 80
2018-10-10 15:00:00 24.2 17 Sudeste 31 Este 0 -- -- 76
2018-10-10 14:00:00 24.5 21 Sudeste 35 Sudeste 0 -- -- 74
2018-10-10 13:00:00 24.7 22 Sudeste 41 Sudeste 0 -- -- 72
2018-10-10 12:00:00 24.7 22 Sur 31 Sur 0 -- -- 71
2018-10-10 11:00:00 24 9 Sur 15 Sur 0 -- -- 75
2018-10-10 10:00:00 20.9 6 Sudeste 9 Sudeste 0 -- -- 99
2018-10-10 09:00:00 15.8 0 Calma 4 Noroeste 0 -- -- 99
2018-10-10 08:00:00 15 0 Calma 3 Norte 0 -- -- 98
2018-10-10 07:00:00 15.4 0 Calma 4 Noroeste 0 -- -- 98
2018-10-10 06:00:00 15.4 0 Calma 5 Sudeste 0 -- -- 98
2018-10-10 05:00:00 15.7 0 Calma 2 Sudeste 0 -- -- 97
2018-10-10 04:00:00 16.8 0 Calma 8 Nordeste 0 -- -- 98
2018-10-10 03:00:00 17.2 2 Norte 7 Nordeste 0 -- -- 97
2018-10-10 02:00:00 17.4 5 Nordeste 14 Nordeste 0 -- -- 97
2018-10-10 01:00:00 16.9 5 Nordeste 17 Nordeste 0 -- -- 97
2018-10-10 00:00:00 16.7 10 Nordeste 17 Nordeste 0 -- -- 97
2018-10-09 23:00:00 16.9 9 Nordeste 26 Nordeste 0 -- -- 96
2018-10-09 22:00:00 16.7 15 Nordeste 24 Nordeste 0 -- -- 96
2018-10-09 21:00:00 16.8 16 Norte 24 Norte 0 -- -- 94
2018-10-09 20:00:00 17.4 4 Nordeste 26 Norte 0 -- -- 96
2018-10-09 19:00:00 17.9 14 Norte 30 Noroeste 1 -- -- 97
2018-10-09 18:00:00 17.5 18 Noroeste 46 Noroeste 15.8 -- -- 97
2018-10-09 17:00:00 20.9 7 Norte 13 Norte 2.8 -- -- 91
2018-10-09 16:00:00 21.5 4 Este 22 Este 0.6 -- -- 87
2018-10-09 15:00:00 22.8 18 Este 30 Este 0 -- -- 77
2018-10-09 14:00:00 23.5 20 Este 29 Sudeste 0 -- -- 70
2018-10-09 13:00:00 23.4 17 Este 26 Este 0 -- -- 69
2018-10-09 12:00:00 23.2 15 Este 25 Sudeste 0 -- -- 68
2018-10-09 11:00:00 18.8 9 Norte 12 Norte 0 -- -- 84
2018-10-09 10:00:00 15 4 Noroeste 6 Noroeste 0 -- -- 97
2018-10-09 09:00:00 12.1 3 Norte 6 Norte 0 -- -- 98
2018-10-09 08:00:00 10.2 0 Calma 4 Sur 0 -- -- 98
2018-10-09 07:00:00 10 3 Sudeste 5 Sudeste 0.2 -- -- 98
2018-10-09 06:00:00 10.3 0 Calma 3 Noroeste 0 -- -- 98
2018-10-09 05:00:00 11 2 Noroeste 4 Noroeste 0 -- -- 99
2018-10-09 04:00:00 11.1 0 Calma 8 Norte 0 -- -- 98
2018-10-09 03:00:00 11.5 0 Calma 3 Sur 0 -- -- 98
2018-10-09 02:00:00 12.5 0 Calma 7 Norte 0 -- -- 98
2018-10-09 01:00:00 12.3 2 Nordeste 5 Norte 0 -- -- 97
2018-10-09 00:00:00 12.5 3 Sudeste 5 Sudeste 0 -- -- 96
2018-10-08 23:00:00 14 2 Noroeste 5 Nordeste 0 -- -- 96
2018-10-08 22:00:00 14.4 0 Calma 6 Noroeste 0 -- -- 95
2018-10-08 21:00:00 15.4 4 Nordeste 13 Nordeste 0 -- -- 94
2018-10-08 20:00:00 15.6 8 Noroeste 15 Noroeste 0 -- -- 95
2018-10-08 19:00:00 15.3 14 Nordeste 33 Sudeste 2 -- -- 96
2018-10-08 18:00:00 13.9 12 Este 46 Noroeste 7.8 -- -- 95
2018-10-08 17:00:00 21.3 21 Este 35 Este 0 -- -- 68
2018-10-08 16:00:00 23 18 Este 35 Este 0 -- -- 58
2018-10-08 15:00:00 23.3 17 Este 36 Este 0 -- -- 55
2018-10-08 14:00:00 22.7 16 Nordeste 32 Nordeste 0 -- -- 57
2018-10-08 13:00:00 21.7 19 Nordeste 41 Norte 0 -- -- 62
2018-10-08 12:00:00 20.7 22 Nordeste 35 Norte 0 -- -- 69
2018-10-08 11:00:00 18.4 22 Norte 33 Norte 0 -- -- 76
2018-10-08 10:00:00 17.5 23 Norte 36 Norte 0 -- -- 80
2018-10-08 09:00:00 16.9 18 Norte 31 Norte 0 -- -- 85
2018-10-08 08:00:00 15.7 11 Nordeste 17 Nordeste 0 -- -- 88
2018-10-08 07:00:00 15.5 10 Nordeste 16 Nordeste 0 -- -- 87
2018-10-08 06:00:00 15.5 8 Nordeste 13 Nordeste 0 -- -- 88
2018-10-08 05:00:00 15.3 6 Norte 13 Nordeste 0 -- -- 90
2018-10-08 04:00:00 15.5 5 Nordeste 10 Nordeste 0 -- -- 90
2018-10-08 03:00:00 15.7 8 Norte 11 Nordeste 0 -- -- 87
2018-10-08 02:00:00 16.7 5 Norte 16 Nordeste 0 -- -- 84
2018-10-08 01:00:00 17.5 12 Nordeste 18 Nordeste 0 -- -- 82
2018-10-08 00:00:00 17.4 10 Nordeste 16 Nordeste 0 -- -- 84
2018-10-07 23:00:00 17.9 8 Nordeste 19 Nordeste 0 -- -- 84
2018-10-07 22:00:00 18.3 13 Nordeste 21 Nordeste 0 -- -- 84
2018-10-07 21:00:00 19 9 Nordeste 21 Norte 0 -- -- 81
2018-10-07 20:00:00 19.5 10 Nordeste 17 Nordeste 0 -- -- 83
2018-10-07 19:00:00 20.7 10 Nordeste 23 Este 0 -- -- 81
2018-10-07 18:00:00 20.6 13 Este 26 Este 0 -- -- 82
2018-10-07 17:00:00 21.3 17 Este 28 Este 0 -- -- 77
2018-10-07 16:00:00 23.4 14 Sudeste 28 Sudeste 0 -- -- 69
2018-10-07 15:00:00 24.6 10 Nordeste 25 Nordeste 0 -- -- 61
2018-10-07 14:00:00 24.5 17 Nordeste 31 Nordeste 0 -- -- 64
2018-10-07 13:00:00 24.5 21 Norte 35 Nordeste 0 -- -- 64
2018-10-07 12:00:00 23.7 22 Norte 39 Nordeste 0 -- -- 69
2018-10-07 11:00:00 23.1 27 Norte 41 Norte 0 -- -- 75
2018-10-07 10:00:00 22.7 15 Norte 34 Oeste 0 -- -- 69
2018-10-07 09:00:00 23.5 14 Sudoeste 28 Sudoeste 0 -- -- 83
2018-10-07 08:00:00 22.6 13 Sudoeste 24 Sudoeste 0 -- -- 83
2018-10-07 07:00:00 22 12 Sudoeste 24 Sudoeste 0 -- -- 88
2018-10-07 06:00:00 21.8 12 Sudoeste 23 Sudoeste 0 -- -- 89
2018-10-07 05:00:00 21.6 12 Sudoeste 27 Sudoeste 0 -- -- 87
2018-10-07 04:00:00 21.6 13 Sudoeste 24 Sudoeste 0 -- -- 86
2018-10-07 03:00:00 21.5 12 Sudoeste 21 Sur 0 -- -- 86
2018-10-07 02:00:00 21.2 11 Sur 18 Sudoeste 0 -- -- 85
2018-10-07 01:00:00 21.3 9 Sur 18 Sur 0 -- -- 86
2018-10-07 00:00:00 21.8 9 Sudoeste 19 Sudoeste 0 -- -- 84
2018-10-06 23:00:00 21.8 9 Sudoeste 19 Sur 0 -- -- 83
2018-10-06 22:00:00 21.6 6 Sudoeste 15 Sur 0 -- -- 83
2018-10-06 21:00:00 22.1 8 Sudoeste 16 Sudoeste 0 -- -- 81
2018-10-06 20:00:00 22.5 9 Sudoeste 18 Sudoeste 0 -- -- 77
2018-10-06 19:00:00 23.5 9 Sudoeste 23 Oeste 0 -- -- 72
2018-10-06 18:00:00 24.5 15 Oeste 24 Oeste 0 -- -- 70
2018-10-06 17:00:00 25.1 15 Sudoeste 30 Oeste 0 -- -- 70
2018-10-06 16:00:00 25.5 20 Oeste 30 Oeste 0 -- -- 71
2018-10-06 15:00:00 25.5 15 Oeste 29 Oeste 0 -- -- 69
2018-10-06 14:00:00 25.1 16 Sudoeste 27 Oeste 0 -- -- 72
2018-10-06 13:00:00 24.8 15 Sudoeste 23 Sudoeste 0 -- -- 71
2018-10-06 12:00:00 24.9 9 Sudoeste 19 Sudoeste 0 -- -- 71
2018-10-06 11:00:00 23.8 9 Sur 18 Sudoeste 0 -- -- 75
2018-10-06 10:00:00 19.3 0 Calma 3 Norte 0 -- -- 83
2018-10-06 09:00:00 15.3 2 Norte 3 Norte 0 -- -- 92
2018-10-06 08:00:00 12.6 0 Calma 0 Calma 0 -- -- 93
2018-10-06 07:00:00 12.7 0 Calma 0 Calma 0 -- -- 92
2018-10-06 06:00:00 13 0 Calma 0 Calma 0 -- -- 92
2018-10-06 05:00:00 13.2 0 Calma 2 Sudeste 0 -- -- 91
2018-10-06 04:00:00 13.5 0 Calma 3 Norte 0 -- -- 90
2018-10-06 03:00:00 14.8 2 Norte 4 Norte 0 -- -- 92
2018-10-06 02:00:00 14.8 2 Norte 4 Norte 0 -- -- 89
2018-10-06 01:00:00 15.5 0 Calma 4 Norte 0 -- -- 86
2018-10-06 00:00:00 17.3 0 Calma 9 Oeste 0 -- -- 87
2018-10-05 23:00:00 16.7 0 Calma -- -- 0 -- -- 85
2018-10-05 22:00:00 18.1 0 Calma 5 Este 0 -- -- 82
2018-10-05 21:00:00 19.2 4 Sudeste -- -- 0 -- -- 77
2018-10-05 20:00:00 21.7 6 Este 15 Sudeste 0 -- -- 76
2018-10-05 19:00:00 22.8 13 Sudeste 21 Sudeste 0 -- -- 73
2018-10-05 18:00:00 24.4 14 Sudeste 19 Sudeste 0 -- -- 66
2018-10-05 17:00:00 24.6 13 Sudeste 25 Sudeste 0 -- -- 65
2018-10-05 16:00:00 24.6 15 Sudeste 39 Sudeste 0 -- -- 64
2018-10-05 15:00:00 25.5 20 Este 33 Sudeste 0 -- -- 63
2018-10-05 14:00:00 25.4 20 Este 40 Sudeste 0 -- -- 63
2018-10-05 13:00:00 25.1 17 Este 30 Este 0 -- -- 65
2018-10-05 12:00:00 24.9 16 Este 30 Este 0 -- -- 66
2018-10-05 11:00:00 24 14 Norte 21 Norte 0 -- -- 71
2018-10-05 10:00:00 20.8 9 Norte 12 Norte 0 -- -- 81
2018-10-05 09:00:00 16.7 0 Calma 6 Oeste 0 -- -- 90
2018-10-05 08:00:00 14.2 0 Calma 0 Calma 0 -- -- 90
2018-10-05 07:00:00 15.1 0 Calma 3 Noroeste 0 -- -- 88
2018-10-05 06:00:00 15.9 0 Calma 6 Norte 0 -- -- 88
2018-10-05 05:00:00 16.7 6 Nordeste 11 Nordeste 0 -- -- 87
2018-10-05 04:00:00 17 4 Nordeste 8 Nordeste 0 -- -- 90
2018-10-05 03:00:00 16.9 3 Noroeste 9 Nordeste 0 -- -- 88
2018-10-05 02:00:00 17.3 5 Nordeste 7 Norte 0 -- -- 87
2018-10-05 01:00:00 16.8 6 Nordeste 8 Nordeste 0 -- -- 89
2018-10-05 00:00:00 15.5 0 Calma 4 Norte 0 -- -- 84
2018-10-04 23:00:00 17.3 0 Calma 5 Norte 0 -- -- 82
2018-10-04 22:00:00 19 3 Nordeste 6 Nordeste 0 -- -- 81
2018-10-04 21:00:00 20.3 5 Nordeste 17 Norte 0 -- -- 77
2018-10-04 20:00:00 21.5 12 Norte 27 Norte 0 -- -- 73
2018-10-04 19:00:00 22.9 13 Norte 29 Norte 0 -- -- 64
2018-10-04 18:00:00 23.6 18 Norte 36 Nordeste 0 -- -- 59
2018-10-04 17:00:00 24.5 22 Norte 39 Norte 0 -- -- 59
2018-10-04 16:00:00 24.9 25 Nordeste 42 Nordeste 0 -- -- 57
2018-10-04 15:00:00 25.1 26 Norte 40 Norte 0 -- -- 56
2018-10-04 14:00:00 25 34 Norte 45 Norte 0 -- -- 51
2018-10-04 13:00:00 24.8 27 Norte 47 Nordeste 0 -- -- 55
2018-10-04 12:00:00 24.1 30 Norte 46 Norte 0 -- -- 56
2018-10-04 11:00:00 23.1 35 Norte 49 Norte 0 -- -- 58
2018-10-04 10:00:00 22.2 30 Norte 44 Norte 0 -- -- 61
2018-10-04 09:00:00 20.1 17 Norte 35 Norte 0 -- -- 70
2018-10-04 08:00:00 16.5 6 Norte 11 Nordeste 0 -- -- 82
2018-10-04 07:00:00 12.8 2 Nordeste 6 Norte 0 -- -- 91
2018-10-04 06:00:00 12.6 2 Sur 5 Sudeste 0 -- -- 91
2018-10-04 05:00:00 12.8 0 Calma 5 Sudoeste 0 -- -- 91
2018-10-04 04:00:00 12.5 2 Sudoeste 8 Sudeste 0 -- -- 91
2018-10-04 03:00:00 12.4 3 Sudeste 6 Este 0 -- -- 90
2018-10-04 02:00:00 12.5 0 Calma -- -- 0 -- -- 89
2018-10-04 01:00:00 12.9 0 Calma -- -- 0 -- -- 86
2018-10-04 00:00:00 13.5 0 Calma 3 Sudeste 0 -- -- 85
2018-10-03 23:00:00 14.5 0 Calma 3 Este 0 -- -- 80
2018-10-03 22:00:00 16.3 0 Calma 6 Oeste 0 -- -- 75
2018-10-03 21:00:00 18.6 0 Calma 12 Norte 0 -- -- 72
2018-10-03 20:00:00 19.9 10 Norte 30 Norte 0 -- -- 68
2018-10-03 19:00:00 21.1 23 Norte 38 Nordeste 0 -- -- 63
2018-10-03 18:00:00 22.2 24 Norte 42 Nordeste 0 -- -- 58
2018-10-03 17:00:00 22.4 26 Nordeste 42 Nordeste 0 -- -- 58
2018-10-03 16:00:00 23.2 25 Nordeste 44 Nordeste 0 -- -- 55
2018-10-03 15:00:00 22.6 24 Nordeste 45 Norte 0 -- -- 56
2018-10-03 14:00:00 22.8 29 Norte 48 Norte 0 -- -- 56
2018-10-03 13:00:00 22.2 33 Norte 49 Norte 0 -- -- 59
2018-10-03 12:00:00 22.5 35 Nordeste 57 Norte 0 -- -- 53
2018-10-03 11:00:00 21.8 32 Norte 47 Norte 0 -- -- 58
2018-10-03 10:00:00 21 28 Nordeste 42 Nordeste 0 -- -- 60
2018-10-03 09:00:00 19.8 18 Norte 31 Nordeste 0 -- -- 62
2018-10-03 08:00:00 18.3 11 Norte 28 Nordeste 0 -- -- 65
2018-10-03 07:00:00 18.2 17 Norte 24 Norte 0 -- -- 65
2018-10-03 06:00:00 18 15 Norte 26 Norte 0 -- -- 66
2018-10-03 05:00:00 18.1 15 Norte 29 Nordeste 0 -- -- 64
2018-10-03 04:00:00 18.1 16 Norte 25 Norte 0 -- -- 64
2018-10-03 03:00:00 11.9 4 Nordeste 9 Nordeste 0 -- -- 87
2018-10-03 02:00:00 11.6 3 Sur 5 Sudeste 0 -- -- 84
2018-10-03 01:00:00 12.1 3 Sudeste 8 Sudeste 0 -- -- 82
2018-10-03 00:00:00 12.4 2 Este 7 Sudeste 0 -- -- 80
2018-10-02 23:00:00 13.3 3 Sur 5 Sudeste 0 -- -- 76
2018-10-02 22:00:00 15.2 0 Calma 6 Nordeste 0 -- -- 69
2018-10-02 21:00:00 17.7 5 Nordeste 13 Nordeste 0 -- -- 57
2018-10-02 20:00:00 18.8 6 Norte 30 Norte 0 -- -- 53
2018-10-02 19:00:00 20.7 20 Nordeste 36 Nordeste 0 -- -- 45
2018-10-02 18:00:00 21.4 25 Nordeste 36 Norte 0 -- -- 44
2018-10-02 17:00:00 21.7 25 Nordeste 40 Norte 0 -- -- 45
2018-10-02 16:00:00 22.2 27 Norte 40 Nordeste 0 -- -- 40
2018-10-02 15:00:00 22.3 23 Norte 39 Nordeste 0 -- -- 46
2018-10-02 14:00:00 21.9 19 Norte 25 Norte 0.2 -- -- 55
2018-10-02 13:00:00 16.2 21 Norte 35 Norte 1 -- -- 83
2018-10-02 12:00:00 21.9 10 Norte 18 Norte 0 -- -- 59
2018-10-02 11:00:00 19.8 13 Nordeste 19 Norte 0 -- -- 67
2018-10-02 10:00:00 18.8 5 Norte 8 Nordeste 0 -- -- 71
2018-10-02 09:00:00 15.5 4 Noroeste 11 Nordeste 0 -- -- 79
2018-10-02 08:00:00 13.5 3 Oeste 9 Este 0 -- -- 86
2018-10-02 07:00:00 13.2 5 Sudeste 6 Sudeste 0 -- -- 81
2018-10-02 06:00:00 15.4 4 Este 13 Nordeste 0 -- -- 72
2018-10-02 05:00:00 17.5 9 Este 21 Nordeste 0 -- -- 62
2018-10-02 04:00:00 17.3 9 Nordeste 19 Nordeste 0 -- -- 64
2018-10-02 03:00:00 17.2 5 Nordeste 13 Nordeste 0 -- -- 65
2018-10-02 02:00:00 16.9 8 Nordeste 14 Nordeste 0 -- -- 69
2018-10-02 01:00:00 17.2 5 Nordeste 9 Nordeste 0 -- -- 73
2018-10-02 00:00:00 17.6 4 Nordeste 11 Nordeste 0 -- -- 77
2018-10-01 23:00:00 18.9 8 Nordeste 14 Nordeste 0 -- -- 75
2018-10-01 22:00:00 19.2 8 Nordeste 12 Nordeste 0 -- -- 79
2018-10-01 21:00:00 19.2 6 Este 13 Nordeste 0 -- -- 80
2018-10-01 20:00:00 19.9 7 Este 19 Este 0 -- -- 82
2018-10-01 19:00:00 20.8 5 Nordeste 20 Este 0 -- -- 82
2018-10-01 18:00:00 21.2 4 Nordeste 23 Este 1.8 -- -- 86
2018-10-01 17:00:00 22.1 15 Este 30 Sudeste 0.8 -- -- 80
2018-10-01 16:00:00 24.5 21 Sudeste 34 Sudeste 0 -- -- 67
2018-10-01 15:00:00 24.3 22 Sudeste 32 Sudeste 0 -- -- 67
2018-10-01 14:00:00 25.3 20 Este 36 Este 0 -- -- 64
2018-10-01 13:00:00 25.5 16 Este 29 Nordeste 0 -- -- 62
2018-10-01 12:00:00 25.4 13 Nordeste 23 Nordeste 0 -- -- 63
2018-10-01 11:00:00 24.4 9 Norte 15 Norte 0 -- -- 69
2018-10-01 10:00:00 21.3 2 Norte 5 Norte 0 -- -- 86
2018-10-01 09:00:00 17.6 3 Noroeste 6 Norte 0 -- -- 92
2018-10-01 08:00:00 16.1 0 Calma -- -- 0 -- -- 92
2018-10-01 07:00:00 15.1 0 Calma -- -- 0 -- -- 92
2018-10-01 06:00:00 14.8 0 Calma -- -- 0 -- -- 91
2018-10-01 05:00:00 15.2 0 Calma -- -- 0 -- -- 91
2018-10-01 04:00:00 15.2 0 Calma -- -- 0 -- -- 90
2018-10-01 03:00:00 15.5 0 Calma -- -- 0 -- -- 89
2018-10-01 02:00:00 16.1 0 Calma 0 Calma 0 -- -- 87
2018-10-01 01:00:00 16.7 0 Calma 2 Norte 0 -- -- 87
2018-10-01 00:00:00 17.3 0 Calma 3 Sudeste 0 -- -- 86
2018-09-30 23:00:00 18.2 0 Calma 3 Sudeste 0 -- -- 83
2018-09-30 22:00:00 19.5 0 Calma 7 Sudeste 0 -- -- 81
2018-09-30 21:00:00 20.8 4 Sudeste 6 Sudeste 0 -- -- 76
2018-09-30 20:00:00 23.2 4 Sur 12 Sur 0 -- -- 70
2018-09-30 19:00:00 25.5 9 Sur 18 Sur 0 -- -- 65
2018-09-30 18:00:00 26.4 11 Sur 21 Sudoeste 0 -- -- 60
2018-09-30 17:00:00 27.5 14 Sudoeste 22 Sur 0 -- -- 54
2018-09-30 16:00:00 28.2 12 Sudeste 28 Sudeste 0 -- -- 52
2018-09-30 15:00:00 27.8 17 Sudeste 28 Sudeste 0 -- -- 52
2018-09-30 14:00:00 28.4 16 Sudeste 25 Sudeste 0 -- -- 49
2018-09-30 13:00:00 28.6 12 Sudeste 24 Sudeste 0 -- -- 46
2018-09-30 12:00:00 27.8 10 Este 19 Sudeste 0 -- -- 49
2018-09-30 11:00:00 26.1 10 Este 16 Este 0 -- -- 64
2018-09-30 10:00:00 23 8 Norte 12 Norte 0 -- -- 77
2018-09-30 09:00:00 17.9 2 Norte 5 Norte 0 -- -- 92
2018-09-30 08:00:00 14.6 0 Calma 2 Noroeste 0 -- -- 92
2018-09-30 07:00:00 14.8 0 Calma 4 Noroeste 0 -- -- 91
2018-09-30 06:00:00 14.9 2 Norte 4 Norte 0 -- -- 91
2018-09-30 05:00:00 15.2 0 Calma 2 Norte 0 -- -- 90
2018-09-30 04:00:00 15.5 0 Calma 0 Calma 0 -- -- 90
2018-09-30 03:00:00 15.8 0 Calma 3 Sudeste 0 -- -- 88
2018-09-30 02:00:00 16.5 0 Calma 2 Sudeste 0 -- -- 87
2018-09-30 01:00:00 17.3 2 Sudeste 4 Norte 0 -- -- 85
2018-09-30 00:00:00 19.1 0 Calma 4 Norte 0 -- -- 84
2018-09-29 23:00:00 19.6 2 Sur 4 Sudeste 0 -- -- 79
2018-09-29 22:00:00 20.3 4 Sudeste 5 Sudeste 0 -- -- 77
2018-09-29 21:00:00 21.8 3 Sudeste 5 Sudeste 0 -- -- 72
2018-09-29 20:00:00 24.3 5 Sur 13 Sudeste 0 -- -- 68
2018-09-29 19:00:00 26.2 10 Sur 20 Sudeste 0 -- -- 62
2018-09-29 18:00:00 27.6 10 Sudeste 25 Este 0 -- -- 56
2018-09-29 17:00:00 27.9 15 Este 31 Sudeste 0 -- -- 54
2018-09-29 16:00:00 28.5 14 Sudeste 29 Sudeste 0 -- -- 53
2018-09-29 15:00:00 28.6 16 Sudeste 28 Sudeste 0 -- -- 50
2018-09-29 14:00:00 28.4 11 Sudoeste 27 Sudoeste 0 -- -- 56
2018-09-29 13:00:00 27.6 15 Oeste 22 Sudoeste 0 -- -- 57
2018-09-29 12:00:00 26.7 12 Oeste 16 Oeste 0 -- -- 65
2018-09-29 11:00:00 24.9 4 Noroeste 6 Oeste 0 -- -- 65
2018-09-29 10:00:00 20.4 0 Calma 4 Oeste 0 -- -- 81
2018-09-29 09:00:00 16.5 0 Calma 5 Nordeste 0 -- -- 88
2018-09-29 08:00:00 13.5 0 Calma 5 Norte 0 -- -- 93
2018-09-29 07:00:00 13.2 0 Calma 2 Este 0 -- -- 91
2018-09-29 06:00:00 13.2 2 Sudeste 3 Sudeste 0 -- -- 91
2018-09-29 05:00:00 13.3 0 Calma 2 Nordeste 0 -- -- 90
2018-09-29 04:00:00 13.6 0 Calma 3 Nordeste 0 -- -- 89
2018-09-29 03:00:00 14 0 Calma 2 Sudeste 0 -- -- 88
2018-09-29 02:00:00 14.5 0 Calma 6 Norte 0 -- -- 86
2018-09-29 01:00:00 15 0 Calma 4 Sudeste 0 -- -- 87
2018-09-29 00:00:00 15.4 0 Calma 3 Sudeste 0 -- -- 84
2018-09-28 23:00:00 17.5 2 Norte 6 Sudeste 0 -- -- 80
2018-09-28 22:00:00 17.9 5 Sudeste 7 Sudeste 0 -- -- 78
2018-09-28 21:00:00 19.3 4 Sudeste 8 Sudeste 0 -- -- 74
2018-09-28 20:00:00 21.6 5 Sudeste 12 Sur 0 -- -- 68
2018-09-28 19:00:00 23.6 9 Sur 18 Sur 0 -- -- 63
2018-09-28 18:00:00 24.6 8 Sur 20 Sudoeste 0 -- -- 61
2018-09-28 17:00:00 24.8 11 Sudoeste 23 Sur 0 -- -- 60
2018-09-28 16:00:00 24.9 10 Sudoeste 23 Sur 0 -- -- 57
2018-09-28 15:00:00 24.9 13 Sudoeste 23 Sur 0 -- -- 57
2018-09-28 14:00:00 25.5 10 Sudoeste 19 Oeste 0 -- -- 55
2018-09-28 13:00:00 25.5 7 Oeste 17 Norte 0 -- -- 49
2018-09-28 12:00:00 23.7 9 Noroeste 16 Noroeste 0 -- -- 58
2018-09-28 11:00:00 22.5 8 Norte 13 Norte 0 -- -- 61
2018-09-28 10:00:00 19.9 6 Norte 9 Norte 0 -- -- 78
2018-09-28 09:00:00 15.7 3 Noroeste 5 Noroeste 0 -- -- 92
2018-09-28 08:00:00 13.1 0 Calma 5 Norte 0 -- -- 92
2018-09-28 07:00:00 13.8 3 Norte 10 Nordeste 0 -- -- 92
2018-09-28 06:00:00 14.7 4 Norte 6 Norte 0 -- -- 92
2018-09-28 05:00:00 15 4 Norte 8 Norte 0 -- -- 90
2018-09-28 04:00:00 16.2 5 Norte 11 Nordeste 0 -- -- 88
2018-09-28 03:00:00 17.3 7 Nordeste 12 Nordeste 0 -- -- 86
2018-09-28 02:00:00 17.8 5 Norte 8 Norte 0 -- -- 83
2018-09-28 01:00:00 18.4 4 Nordeste 8 Nordeste 0 -- -- 82
2018-09-28 00:00:00 18.2 4 Norte 8 Nordeste 0 -- -- 83
2018-09-27 23:00:00 18.3 6 Nordeste 9 Nordeste 0 -- -- 80
2018-09-27 22:00:00 18.3 3 Nordeste 5 Nordeste 0 -- -- 77
2018-09-27 21:00:00 20 0 Calma 6 Nordeste 0 -- -- 73
2018-09-27 20:00:00 22.1 5 Este 23 Este 0 -- -- 70
2018-09-27 19:00:00 23.5 14 Este 24 Este 0 -- -- 64
2018-09-27 18:00:00 25.4 19 Este 29 Este 0 -- -- 57
2018-09-27 17:00:00 25.8 17 Este 31 Sudeste 0 -- -- 58
2018-09-27 16:00:00 25.8 17 Este 36 Este 0 -- -- 58
2018-09-27 15:00:00 25.7 20 Este 32 Este 0 -- -- 59
2018-09-27 14:00:00 26.2 17 Este 31 Este 0 -- -- 58
2018-09-27 13:00:00 25.7 18 Este 30 Este 0 -- -- 60
2018-09-27 12:00:00 25.7 18 Este 39 Este 0 -- -- 60
2018-09-27 11:00:00 24.2 16 Nordeste 23 Nordeste 0 -- -- 64
2018-09-27 10:00:00 22.1 16 Nordeste 23 Nordeste 0 -- -- 68
2018-09-27 09:00:00 19.4 12 Nordeste 17 Nordeste 0 -- -- 76
2018-09-27 08:00:00 17.9 11 Nordeste 17 Nordeste 0 -- -- 79
2018-09-27 07:00:00 18 11 Nordeste 19 Nordeste 0 -- -- 78
2018-09-27 06:00:00 17.6 12 Nordeste 20 Nordeste 0 -- -- 80
2018-09-27 05:00:00 17.6 10 Nordeste 15 Nordeste 0 -- -- 79
2018-09-27 04:00:00 17 8 Nordeste 14 Nordeste 0 -- -- 80
2018-09-27 03:00:00 18.3 11 Nordeste 19 Nordeste 0 -- -- 75
2018-09-27 02:00:00 18.3 10 Nordeste 17 Nordeste 0 -- -- 76
2018-09-27 01:00:00 18.3 10 Nordeste 15 Nordeste 0 -- -- 75
2018-09-27 00:00:00 18.4 8 Nordeste 11 Nordeste 0 -- -- 75
2018-09-26 23:00:00 19.4 4 Nordeste 9 Nordeste 0 -- -- 72
2018-09-26 22:00:00 20.8 6 Nordeste 15 Nordeste 0 -- -- 68
2018-09-26 21:00:00 21.7 9 Nordeste 21 Nordeste 0 -- -- 66
2018-09-26 20:00:00 22.6 14 Nordeste 30 Nordeste 0 -- -- 61
2018-09-26 19:00:00 24 17 Nordeste 37 Este 0 -- -- 57
2018-09-26 18:00:00 25 24 Este 39 Este 0 -- -- 54
2018-09-26 17:00:00 25.4 28 Este 45 Este 0 -- -- 58
2018-09-26 16:00:00 26.2 26 Este 45 Este 0 -- -- 59
2018-09-26 15:00:00 26.4 27 Este 49 Este 0 -- -- 60
2018-09-26 14:00:00 26.3 32 Este 49 Este 0 -- -- 63
2018-09-26 13:00:00 25 23 Este 37 Este 0 -- -- 71
2018-09-26 12:00:00 24.8 23 Este 38 Este 0.4 -- -- 76
2018-09-26 11:00:00 24.8 20 Este 33 Nordeste 0 -- -- 67
2018-09-26 10:00:00 23.6 14 Nordeste 21 Nordeste 0 -- -- 70
2018-09-26 09:00:00 22.2 12 Nordeste 19 Norte 0 -- -- 78
2018-09-26 08:00:00 22.5 11 Nordeste 22 Nordeste 0 -- -- 77
2018-09-26 07:00:00 23.1 14 Nordeste 29 Este 0 -- -- 73
2018-09-26 06:00:00 23.1 15 Nordeste 35 Nordeste 0 -- -- 74
2018-09-26 05:00:00 23.3 15 Nordeste 30 Nordeste 0 -- -- 77
2018-09-26 04:00:00 22 10 Nordeste 19 Norte 0 -- -- 86
2018-09-26 03:00:00 21.3 10 Nordeste 15 Nordeste 0 -- -- 87
2018-09-26 02:00:00 21.2 6 Nordeste 15 Norte 0 -- -- 88
2018-09-26 01:00:00 21.5 9 Nordeste 13 Nordeste 0 -- -- 86
2018-09-26 00:00:00 21.5 4 Nordeste 9 Norte 0 -- -- 85
2018-09-25 23:00:00 21.8 6 Norte 18 Nordeste 0 -- -- 84
2018-09-25 22:00:00 22.9 10 Nordeste 20 Este 0 -- -- 81
2018-09-25 21:00:00 22.6 6 Nordeste 24 Nordeste 0 -- -- 85
2018-09-25 20:00:00 24.2 18 Norte 25 Norte 0 -- -- 72
2018-09-25 19:00:00 25.2 18 Norte 36 Norte 0 -- -- 64
2018-09-25 18:00:00 25.9 26 Nordeste 37 Norte 0 -- -- 56
2018-09-25 17:00:00 26.6 26 Norte 38 Norte 0 -- -- 54
2018-09-25 16:00:00 27 26 Norte 43 Nordeste 0 -- -- 54
2018-09-25 15:00:00 26.5 23 Nordeste 45 Nordeste 0 -- -- 59
2018-09-25 14:00:00 26.7 22 Norte 39 Norte 0 -- -- 58
2018-09-25 13:00:00 25.7 26 Norte 36 Norte 0 -- -- 62
2018-09-25 12:00:00 25.6 18 Nordeste 33 Norte 0 -- -- 60
2018-09-25 11:00:00 24.8 18 Nordeste 32 Nordeste 0 -- -- 63
2018-09-25 10:00:00 23.2 21 Nordeste 30 Nordeste 0 -- -- 65
2018-09-25 09:00:00 22.1 8 Nordeste 22 Nordeste 0 -- -- 69
2018-09-25 08:00:00 21.5 12 Nordeste 19 Nordeste 0 -- -- 71
2018-09-25 07:00:00 21.2 9 Nordeste 16 Nordeste 0 -- -- 73
2018-09-25 06:00:00 21.1 9 Nordeste 14 Nordeste 0 -- -- 73
2018-09-25 05:00:00 20.7 5 Nordeste 14 Nordeste 0 -- -- 75
2018-09-25 04:00:00 21.5 8 Nordeste 18 Nordeste 0 -- -- 72
2018-09-25 03:00:00 22.3 10 Nordeste 23 Nordeste 0 -- -- 67
2018-09-25 02:00:00 23.3 13 Nordeste 19 Nordeste 0 -- -- 66
2018-09-25 01:00:00 23.8 10 Nordeste 16 Nordeste 0 -- -- 70
2018-09-25 00:00:00 23.8 8 Nordeste 15 Nordeste 0 -- -- 79
2018-09-24 23:00:00 23.5 4 Nordeste 20 Este 0 -- -- 85
2018-09-24 22:00:00 24 13 Este 22 Este 0 -- -- 84
2018-09-24 21:00:00 24.8 10 Sudeste 16 Sudeste 0 -- -- 83
2018-09-24 20:00:00 25.6 10 Sudeste 19 Sur 0 -- -- 77
2018-09-24 19:00:00 26.8 12 Sur 23 Sudoeste 0 -- -- 74
2018-09-24 18:00:00 27.7 11 Sur 20 Sur 0 -- -- 70
2018-09-24 17:00:00 27 11 Sur 26 Sudoeste 0 -- -- 71
2018-09-24 16:00:00 28.3 15 Sudoeste 28 Sudoeste 0 -- -- 63
2018-09-24 15:00:00 28.9 16 Sur 28 Sur 0 -- -- 58
2018-09-24 14:00:00 29.9 15 Sudeste 24 Sudeste 0 -- -- 51
2018-09-24 13:00:00 28.3 8 Oeste 19 Noroeste 0 -- -- 64
2018-09-24 12:00:00 27.9 12 Oeste 16 Oeste 0 -- -- 67
2018-09-24 11:00:00 27 4 Noroeste 8 Noroeste 0 -- -- 66
2018-09-24 10:00:00 23.6 0 Calma 4 Norte 0 -- -- 80
2018-09-24 09:00:00 19.8 3 Noroeste 5 Noroeste 0 -- -- 91
2018-09-24 08:00:00 16.3 0 Calma 4 Norte 0 -- -- 94
2018-09-24 07:00:00 16.2 0 Calma -- -- 0 -- -- 94
2018-09-24 06:00:00 16.5 0 Calma 3 Norte 0 -- -- 94
2018-09-24 05:00:00 16.7 0 Calma 2 Sudeste 0 -- -- 92
2018-09-24 04:00:00 17.5 0 Calma 5 Norte 0 -- -- 92
2018-09-24 03:00:00 17.9 0 Calma 3 Norte 0 -- -- 91
2018-09-24 02:00:00 18.3 0 Calma 3 Sur 0 -- -- 91
2018-09-24 01:00:00 19 0 Calma 4 Norte 0 -- -- 89
2018-09-24 00:00:00 19.8 0 Calma 4 Sudeste 0 -- -- 88
2018-09-23 23:00:00 20.6 3 Sudeste 4 Sudeste 0 -- -- 85
2018-09-23 22:00:00 22.5 0 Calma 6 Sudoeste 0 -- -- 80
2018-09-23 21:00:00 25.1 5 Sudoeste 11 Sudoeste 0 -- -- 75
2018-09-23 20:00:00 25.8 6 Sudoeste 14 Sudoeste 0 -- -- 71
2018-09-23 19:00:00 27.2 8 Sudoeste 19 Sudoeste 0 -- -- 66
2018-09-23 18:00:00 28.2 12 Sudoeste 23 Sudoeste 0 -- -- 63
2018-09-23 17:00:00 28.6 14 Sudoeste 23 Sudoeste 0 -- -- 61
2018-09-23 16:00:00 28.3 17 Sudoeste 25 Sudoeste 0 -- -- 62
2018-09-23 15:00:00 28.6 17 Oeste 24 Sudoeste 0 -- -- 63
2018-09-23 14:00:00 28.3 15 Oeste 25 Sudoeste 0 -- -- 65
2018-09-23 13:00:00 28.1 18 Oeste 25 Oeste 0 -- -- 72
2018-09-23 12:00:00 28 14 Oeste 19 Sudoeste 0 -- -- 67
2018-09-23 11:00:00 26.8 10 Sudoeste 14 Sudoeste 0 -- -- 77
2018-09-23 10:00:00 24.4 3 Noroeste 4 Sudoeste 0 -- -- 86
2018-09-23 09:00:00 20.7 2 Norte 6 Norte 0 -- -- 95
2018-09-23 08:00:00 17.7 0 Calma 3 Nordeste 0 -- -- 95
2018-09-23 07:00:00 17.8 0 Calma 3 Sudeste 0 -- -- 95
2018-09-23 06:00:00 17.9 3 Sudeste 3 Sudeste 0 -- -- 94
2018-09-23 05:00:00 18.6 2 Norte 4 Noroeste 0 -- -- 94
2018-09-23 04:00:00 18.5 0 Calma 3 Sudeste 0 -- -- 93
2018-09-23 03:00:00 19.2 0 Calma 4 Nordeste 0 -- -- 93
2018-09-23 02:00:00 19.4 0 Calma 4 Norte 0 -- -- 92
2018-09-23 01:00:00 20.2 0 Calma 3 Sudeste 0 -- -- 91
2018-09-23 00:00:00 20.8 3 Sudeste 4 Sudeste 0 -- -- 90
2018-09-22 23:00:00 21.9 0 Calma 4 Sudeste 0 -- -- 88
2018-09-22 22:00:00 22.6 3 Sudeste 5 Sur 0 -- -- 85
2018-09-22 21:00:00 24.7 0 Calma 8 Sudoeste 0 -- -- 81
2018-09-22 20:00:00 25.7 5 Sudoeste 17 Oeste 0 -- -- 77
2018-09-22 19:00:00 26.7 11 Sudoeste 18 Oeste 0 -- -- 72
2018-09-22 18:00:00 27.4 12 Sudoeste 23 Oeste 0 -- -- 70
2018-09-22 17:00:00 28 12 Sudoeste 22 Sudoeste 0 -- -- 66
2018-09-22 16:00:00 28.1 16 Sur 27 Sudoeste 0 -- -- 61
2018-09-22 15:00:00 28.6 18 Sur 28 Sur 0 -- -- 60
2018-09-22 14:00:00 29.2 14 Sur 25 Sur 0 -- -- 57
2018-09-22 13:00:00 29.3 12 Sudeste 22 Sudeste 0 -- -- 56
2018-09-22 12:00:00 28.7 6 Sudeste 19 Sudeste 0 -- -- 60
2018-09-22 11:00:00 27.2 8 Este 18 Este 0 -- -- 69
2018-09-22 10:00:00 24.4 5 Norte 7 Noroeste 0 -- -- 85
2018-09-22 09:00:00 20.9 0 Calma 4 Norte 0 -- -- 96
2018-09-22 08:00:00 18.5 0 Calma 2 Sur 0 -- -- 95
2018-09-22 07:00:00 18.6 0 Calma 4 Nordeste 0 -- -- 95
2018-09-22 06:00:00 19.3 0 Calma 4 Norte 0 -- -- 96
2018-09-22 05:00:00 19.8 3 Norte 5 Norte 0 -- -- 95
2018-09-22 04:00:00 19.9 2 Sur 6 Norte 0 -- -- 94
2018-09-22 03:00:00 20.4 0 Calma -- -- 0 -- -- 94
2018-09-22 02:00:00 20.4 0 Calma -- -- 0 -- -- 93
2018-09-22 01:00:00 20.4 0 Calma -- -- 0 -- -- 92
2018-09-22 00:00:00 20.7 0 Calma 0 Calma 0 -- -- 91
2018-09-21 23:00:00 21.6 0 Calma 6 Noroeste 0 -- -- 88
2018-09-21 22:00:00 24.6 5 Noroeste 12 Oeste 0 -- -- 85
2018-09-21 21:00:00 25.1 9 Oeste 15 Oeste 0 -- -- 81
2018-09-21 20:00:00 25.6 11 Oeste 21 Oeste 0 -- -- 76
2018-09-21 19:00:00 26.5 14 Oeste 26 Oeste 0 -- -- 73
2018-09-21 18:00:00 27 20 Oeste 27 Sudoeste 0 -- -- 75
2018-09-21 17:00:00 27.3 20 Oeste 27 Oeste 0 -- -- 73
2018-09-21 16:00:00 27.7 16 Sudoeste 27 Oeste 0 -- -- 71
2018-09-21 15:00:00 27.6 18 Oeste 28 Sudoeste 0 -- -- 72
2018-09-21 14:00:00 27.7 18 Oeste 28 Sudoeste 0 -- -- 71
2018-09-21 13:00:00 27.5 18 Oeste 27 Oeste 0 -- -- 73
2018-09-21 12:00:00 27.3 17 Oeste 26 Sudoeste 0 -- -- 74
2018-09-21 11:00:00 26.7 10 Oeste 16 Oeste 0 -- -- 73
2018-09-21 10:00:00 23.9 0 Calma -- -- 0 -- -- 86
2018-09-21 09:00:00 19.9 0 Calma -- -- 0 -- -- 95
2018-09-21 08:00:00 17.2 0 Calma -- -- 0 -- -- 96
2018-09-21 07:00:00 17.2 0 Calma -- -- 0 -- -- 96
2018-09-21 06:00:00 17.3 0 Calma -- -- 0 -- -- 95
2018-09-21 05:00:00 17.2 0 Calma -- -- 0 -- -- 94
2018-09-21 04:00:00 17.7 0 Calma -- -- 0 -- -- 94
2018-09-21 03:00:00 18.3 0 Calma 0 Calma 0 -- -- 93
2018-09-21 02:00:00 18.6 0 Calma 4 Sudeste 0 -- -- 93
2018-09-21 01:00:00 19.3 2 Sudeste 3 Sudeste 0 -- -- 91
2018-09-21 00:00:00 20.1 0 Calma 3 Sudeste 0 -- -- 90
2018-09-20 23:00:00 20.8 4 Sudeste 5 Sudeste 0 -- -- 89
2018-09-20 22:00:00 22 3 Sudeste 5 Oeste 0 -- -- 84
2018-09-20 21:00:00 24.7 4 Oeste 13 Oeste 0 -- -- 77
2018-09-20 20:00:00 25.4 9 Oeste 16 Oeste 0 -- -- 75
2018-09-20 19:00:00 26.4 13 Oeste 19 Oeste 0 -- -- 70
2018-09-20 18:00:00 27.1 11 Oeste 21 Oeste 0 -- -- 67
2018-09-20 17:00:00 27.3 13 Oeste 24 Sudoeste 0 -- -- 68
2018-09-20 16:00:00 27.7 16 Oeste 25 Oeste 0 -- -- 69
2018-09-20 15:00:00 27.9 13 Sudoeste 23 Oeste 0 -- -- 66
2018-09-20 14:00:00 27.9 15 Oeste 26 Sudoeste 0 -- -- 66
2018-09-20 13:00:00 28 6 Noroeste 14 Norte 0 -- -- 58
2018-09-20 12:00:00 27.1 8 Nordeste 17 Nordeste 0 -- -- 64
2018-09-20 11:00:00 25.7 10 Nordeste 18 Norte 0 -- -- 75
2018-09-20 10:00:00 23.3 7 Nordeste 11 Nordeste 0 -- -- 88
2018-09-20 09:00:00 19.8 3 Norte 6 Norte 0 -- -- 97
2018-09-20 08:00:00 17.9 0 Calma 6 Norte 0 -- -- 97
2018-09-20 07:00:00 17.5 0 Calma 4 Norte 0 -- -- 97
2018-09-20 06:00:00 17.3 0 Calma -- -- 0 -- -- 96
2018-09-20 05:00:00 17.5 0 Calma 3 Nordeste 0 -- -- 95
2018-09-20 04:00:00 18.6 0 Calma 3 Nordeste 0 -- -- 95
2018-09-20 03:00:00 19 2 Nordeste 4 Noroeste 0 -- -- 94
2018-09-20 02:00:00 19.4 0 Calma 3 Norte 0 -- -- 93
2018-09-20 01:00:00 20.1 0 Calma 4 Nordeste 0 -- -- 92
2018-09-20 00:00:00 20.3 3 Nordeste 4 Nordeste 0 -- -- 91
2018-09-19 23:00:00 21.6 2 Nordeste 4 Este 0 -- -- 88
2018-09-19 22:00:00 22.4 0 Calma 5 Sur 0 -- -- 85
2018-09-19 21:00:00 23.6 5 Este 9 Nordeste 0 -- -- 81
2018-09-19 20:00:00 25.4 3 Sudoeste 8 Oeste 0 -- -- 73
2018-09-19 19:00:00 27.2 6 Oeste 12 Sudoeste 0 -- -- 64
2018-09-19 18:00:00 27.6 0 Calma 7 Noroeste 0 -- -- 64
2018-09-19 17:00:00 25.6 6 Nordeste 12 Nordeste 0 -- -- 77
2018-09-19 16:00:00 24 6 Norte 18 Norte 0 -- -- 79
2018-09-19 15:00:00 25 7 Nordeste 19 Este 0 -- -- 76
2018-09-19 14:00:00 22.7 15 Este 31 Este 0 -- -- 82
2018-09-19 13:00:00 26 14 Oeste 18 Sudoeste 0 -- -- 79
2018-09-19 12:00:00 26.8 4 Norte 10 Norte 0 -- -- 72
2018-09-19 11:00:00 26.5 5 Oeste 6 Noroeste 0 -- -- 76
2018-09-19 10:00:00 24.1 3 Norte 9 Norte 0 -- -- 88
2018-09-19 09:00:00 22.2 6 Norte 9 Norte 0 -- -- 95
2018-09-19 08:00:00 20.5 3 Noroeste 6 Norte 0 -- -- 95
2018-09-19 07:00:00 21 2 Norte 5 Norte 0 -- -- 95
2018-09-19 06:00:00 20.6 3 Norte 4 Norte 0 -- -- 94
2018-09-19 05:00:00 20.9 0 Calma 4 Norte 0 -- -- 92
2018-09-19 04:00:00 21.8 0 Calma 4 Nordeste 0 -- -- 91
2018-09-19 03:00:00 22.6 0 Calma 14 Nordeste 0 -- -- 89
2018-09-19 02:00:00 23 6 Nordeste 9 Nordeste 0 -- -- 90
2018-09-19 01:00:00 22.8 2 Nordeste 8 Nordeste 0 -- -- 91
2018-09-19 00:00:00 23 5 Norte 7 Norte 0 -- -- 90
2018-09-18 23:00:00 22.6 0 Calma -- -- 0 -- -- 90
2018-09-18 22:00:00 22.7 0 Calma 3 Sudeste 0 -- -- 88
2018-09-18 21:00:00 24.4 0 Calma 6 Sudeste 0 -- -- 83
2018-09-18 20:00:00 25.5 6 Sudeste 18 Sudeste 0 -- -- 77
2018-09-18 19:00:00 26.8 13 Sudeste 19 Sudeste 0 -- -- 70
2018-09-18 18:00:00 27.7 14 Sudeste 24 Este 0 -- -- 64
2018-09-18 17:00:00 28.1 15 Sudeste 26 Sudeste 0 -- -- 67
2018-09-18 16:00:00 28.5 13 Este 24 Sudeste 0 -- -- 64
2018-09-18 15:00:00 29 15 Sudeste 25 Sudeste 0 -- -- 64
2018-09-18 14:00:00 28.6 14 Sur 23 Sudeste 0 -- -- 64
2018-09-18 13:00:00 28.2 11 Sur 18 Sudoeste 0 -- -- 65
2018-09-18 12:00:00 27.4 9 Oeste 15 Oeste 0 -- -- 74
2018-09-18 11:00:00 26.7 6 Oeste 12 Oeste 0 -- -- 76
2018-09-18 10:00:00 25.4 3 Oeste 8 Oeste 0 -- -- 83
2018-09-18 09:00:00 23.9 3 Sudeste 8 Sur 0 -- -- 89
2018-09-18 08:00:00 23.3 5 Sur 8 Sudoeste 0 -- -- 88
2018-09-18 07:00:00 23.7 6 Sur 21 Sur 0 -- -- 85
2018-09-18 06:00:00 22.1 2 Sudeste 5 Norte 0 -- -- 96
2018-09-18 05:00:00 22.4 2 Noroeste 8 Este 0 -- -- 96
2018-09-18 04:00:00 22.3 4 Norte 8 Este 0 -- -- 96
2018-09-18 03:00:00 22 0 Calma 5 Norte 0 -- -- 95
2018-09-18 02:00:00 22.2 0 Calma 4 Sudeste 0 -- -- 94
2018-09-18 01:00:00 22.4 0 Calma 11 Nordeste 0.2 -- -- 94
2018-09-18 00:00:00 22.5 3 Norte 9 Nordeste 0 -- -- 93
2018-09-17 23:00:00 23.3 8 Nordeste 12 Norte 0 -- -- 92
2018-09-17 22:00:00 23.5 0 Calma 5 Norte 0 -- -- 92
2018-09-17 21:00:00 24 4 Nordeste 10 Nordeste 0 -- -- 90
2018-09-17 20:00:00 24.9 6 Norte 14 Norte 0 -- -- 88
2018-09-17 19:00:00 25.8 8 Este 19 Este 0 -- -- 81
2018-09-17 18:00:00 26.2 10 Este 24 Este 0 -- -- 79
2018-09-17 17:00:00 25.9 15 Este 25 Este 1.4 -- -- 88
2018-09-17 16:00:00 25.6 7 Sudeste 25 Sudeste 1.2 -- -- 87
2018-09-17 15:00:00 28.5 17 Sudeste 24 Sudeste 0 -- -- 71
2018-09-17 14:00:00 30.2 15 Este 27 Sudeste 0 -- -- 59
2018-09-17 13:00:00 29.6 14 Sudeste 27 Sudeste 0 -- -- 66
2018-09-17 12:00:00 28.6 10 Este 24 Nordeste 0 -- -- 67
2018-09-17 11:00:00 27.3 10 Nordeste 17 Este 0 -- -- 72
2018-09-17 10:00:00 26 9 Nordeste 16 Nordeste 0 -- -- 80
2018-09-17 09:00:00 22.9 8 Norte 12 Nordeste 0 -- -- 96
2018-09-17 08:00:00 21.9 7 Nordeste 11 Nordeste 0 -- -- 96
2018-09-17 07:00:00 22 6 Nordeste 12 Nordeste 0 -- -- 96
2018-09-17 06:00:00 22.5 7 Nordeste 13 Nordeste 0 -- -- 96
2018-09-17 05:00:00 22.1 6 Este 10 Nordeste 0 -- -- 96
2018-09-17 04:00:00 22.3 6 Nordeste 13 Nordeste 0 -- -- 95
2018-09-17 03:00:00 22.6 8 Nordeste 12 Nordeste 0 -- -- 95
2018-09-17 02:00:00 23.3 0 Calma 9 Sur 0 -- -- 92
2018-09-17 01:00:00 23.4 8 Nordeste 10 Nordeste 0 -- -- 92
2018-09-17 00:00:00 23.5 6 Nordeste 10 Nordeste 0 -- -- 92
2018-09-16 23:00:00 24.1 5 Norte 6 Norte 0 -- -- 90
2018-09-16 22:00:00 24.9 4 Nordeste 8 Nordeste 0 -- -- 88
2018-09-16 21:00:00 25.3 4 Norte 11 Sudeste 0 -- -- 86
2018-09-16 20:00:00 25.9 11 Este 20 Este 0 -- -- 82
2018-09-16 19:00:00 27 17 Sudeste 22 Sudeste 0 -- -- 76
2018-09-16 18:00:00 27.8 13 Sudeste 22 Sudeste 0 -- -- 73
2018-09-16 17:00:00 28.5 9 Sudeste 21 Este 0 -- -- 71
2018-09-16 16:00:00 28.1 15 Sudeste 22 Este 0 -- -- 71
2018-09-16 15:00:00 28.5 12 Sudeste 31 Sudeste 0 -- -- 71
2018-09-16 14:00:00 28.6 19 Sudeste 28 Este 0 -- -- 70
2018-09-16 13:00:00 28.3 19 Sudeste 32 Sudeste 0 -- -- 75
2018-09-16 12:00:00 28 10 Este 19 Sudeste 0 -- -- 73
2018-09-16 11:00:00 26.8 13 Sudeste 21 Sudeste 0 -- -- 79
2018-09-16 10:00:00 24.4 0 Calma 9 Norte 0 -- -- 89
2018-09-16 09:00:00 22.7 8 Norte 13 Nordeste 0 -- -- 92
2018-09-16 08:00:00 21.7 9 Nordeste 15 Norte 0 -- -- 94
2018-09-16 07:00:00 21.6 8 Nordeste 15 Nordeste 0 -- -- 94
2018-09-16 06:00:00 21.5 10 Nordeste 14 Nordeste 0 -- -- 95
2018-09-16 05:00:00 21.8 4 Norte 14 Nordeste 0 -- -- 94
2018-09-16 04:00:00 22.3 7 Nordeste 12 Nordeste 0 -- -- 93
2018-09-16 03:00:00 22.1 8 Nordeste 13 Nordeste 0 -- -- 93
2018-09-16 02:00:00 22.7 6 Nordeste 11 Nordeste 0 -- -- 91
2018-09-16 01:00:00 23.8 8 Nordeste 20 Este 0 -- -- 87
2018-09-16 00:00:00 24.4 12 Este 21 Este 0 -- -- 85
2018-09-15 23:00:00 23.5 8 Sudeste 14 Sudeste 0 -- -- 90
2018-09-15 22:00:00 23.8 3 Este 8 Norte 0 -- -- 87
2018-09-15 21:00:00 24.4 7 Este 14 Este 0 -- -- 85
2018-09-15 20:00:00 24.9 8 Este 23 Este 0 -- -- 82
2018-09-15 19:00:00 25.6 14 Este 31 Este 0 -- -- 79
2018-09-15 18:00:00 26.1 17 Este 33 Este 0 -- -- 78
2018-09-15 17:00:00 25.7 14 Este 24 Este 0 -- -- 78
2018-09-15 16:00:00 25.9 18 Sudeste 27 Sudeste 0 -- -- 78
2018-09-15 15:00:00 26.5 17 Sudeste 30 Este 0 -- -- 76
2018-09-15 14:00:00 26.3 20 Este 35 Este 0.2 -- -- 78
2018-09-15 13:00:00 25.9 20 Sudeste 33 Este 0 -- -- 79
2018-09-15 12:00:00 25.4 18 Este 35 Este 0 -- -- 82
2018-09-15 11:00:00 25.2 12 Este 22 Este 0 -- -- 84
2018-09-15 10:00:00 23 13 Este 25 Nordeste 0 -- -- 91
2018-09-15 09:00:00 21.3 8 Norte 14 Nordeste 0.2 -- -- 95
2018-09-15 08:00:00 21.6 8 Este 25 Este 10.6 -- -- 95
2018-09-15 07:00:00 20.9 4 Nordeste 10 Norte 0.6 -- -- 93
2018-09-15 06:00:00 21 3 Norte 12 Nordeste 0 -- -- 91
2018-09-15 05:00:00 21.5 7 Nordeste 16 Nordeste 0 -- -- 90
2018-09-15 04:00:00 21.9 10 Nordeste 17 Nordeste 0 -- -- 89
2018-09-15 03:00:00 21.1 5 Norte 8 Nordeste 0 -- -- 90
2018-09-15 02:00:00 20.7 0 Calma 5 Norte 0 -- -- 92
2018-09-15 01:00:00 21 0 Calma 4 Sudeste 0 -- -- 90
2018-09-15 00:00:00 21.9 0 Calma 5 Oeste 0 -- -- 88